createdAt,value
2019-04-01T00:02:55.897Z,68
2019-04-01T00:08:27.525Z,67
2019-04-01T00:13:59.112Z,66
2019-04-01T00:19:30.805Z,66
2019-04-01T00:25:02.899Z,66
2019-04-01T00:30:35.343Z,67
2019-04-01T00:36:07.749Z,64
2019-04-01T00:41:40.167Z,64
2019-04-01T00:47:12.796Z,68
2019-04-01T00:52:45.117Z,69
2019-04-01T00:58:17.614Z,70
2019-04-01T01:03:50.077Z,68
2019-04-01T01:09:22.505Z,67
2019-04-01T01:14:54.887Z,68
2019-04-01T01:20:27.381Z,69
2019-04-01T01:25:59.758Z,68
2019-04-01T01:31:32.251Z,67
2019-04-01T01:37:04.672Z,65
2019-04-01T01:42:37.070Z,68
2019-04-01T01:48:09.536Z,70
2019-04-01T01:53:41.884Z,71
2019-04-01T01:59:13.233Z,70
2019-04-01T02:04:44.712Z,68
2019-04-01T02:10:16.271Z,66
2019-04-01T02:15:47.773Z,66
2019-04-01T02:21:19.262Z,65
2019-04-01T02:26:50.778Z,65
2019-04-01T02:32:22.278Z,64
2019-04-01T02:37:53.920Z,65
2019-04-01T02:43:25.423Z,67
2019-04-01T02:48:56.838Z,68
2019-04-01T02:54:28.862Z,68
2019-04-01T03:00:00.841Z,65
2019-04-01T03:05:33.079Z,64
2019-04-01T03:11:04.592Z,69
2019-04-01T03:16:36.123Z,68
2019-04-01T03:22:07.494Z,67
2019-04-01T03:27:38.887Z,66
2019-04-01T03:33:10.325Z,64
2019-04-01T03:38:41.924Z,63
2019-04-01T03:44:13.636Z,63
2019-04-01T03:49:45.193Z,63
2019-04-01T03:55:16.726Z,65
2019-04-01T04:00:48.745Z,65
2019-04-01T04:06:20.974Z,67
2019-04-01T04:11:53.224Z,67
2019-04-01T04:17:25.315Z,66
2019-04-01T04:22:57.202Z,65
2019-04-01T04:28:29.480Z,65
2019-04-01T04:34:01.289Z,65
2019-04-01T04:39:32.862Z,66
2019-04-01T04:45:04.294Z,66
2019-04-01T04:50:35.803Z,69
2019-04-01T04:56:07.183Z,70
2019-04-01T05:01:38.629Z,69
2019-04-01T05:07:10.241Z,68
2019-04-01T05:12:42.042Z,69
2019-04-01T05:18:14.258Z,68
2019-04-01T05:23:45.679Z,68
2019-04-01T05:29:17.126Z,67
2019-04-01T05:34:48.696Z,66
2019-04-01T05:40:20.296Z,66
2019-04-01T05:45:52.026Z,68
2019-04-01T05:51:23.765Z,69
2019-04-01T05:56:55.547Z,66
2019-04-01T06:02:27.361Z,65
2019-04-01T06:07:59.388Z,66
2019-04-01T06:13:31.498Z,67
2019-04-01T06:19:05.932Z,67
2019-04-01T06:24:37.345Z,71
2019-04-01T06:30:10.122Z,68
2019-04-01T06:35:43.216Z,68
2019-04-01T06:41:16.333Z,72
2019-04-01T06:46:49.582Z,70
2019-04-01T06:52:22.723Z,71
2019-04-01T06:57:55.956Z,71
2019-04-01T07:03:29.273Z,69
2019-04-01T07:09:02.512Z,70
2019-04-01T07:14:35.864Z,70
2019-04-01T07:20:09.290Z,69
2019-04-01T07:25:42.687Z,69
2019-04-01T07:31:16.070Z,69
2019-04-01T07:36:49.594Z,70
2019-04-01T07:42:23.118Z,70
2019-04-01T07:47:58.013Z,70
2019-04-01T07:53:30.301Z,69
2019-04-01T07:59:03.947Z,69
2019-04-01T08:04:37.582Z,69
2019-04-01T08:10:11.305Z,69
2019-04-01T08:15:45.015Z,68
2019-04-01T08:21:18.837Z,69
2019-04-01T08:26:52.564Z,69
2019-04-01T08:32:26.388Z,69
2019-04-01T08:38:00.272Z,69
2019-04-01T08:43:34.091Z,68
2019-04-01T08:49:08.140Z,66
2019-04-01T08:54:41.859Z,67
2019-04-01T09:00:15.565Z,68
2019-04-01T09:05:49.091Z,67
2019-04-01T09:11:22.779Z,66
2019-04-01T09:16:56.702Z,65
2019-04-01T09:22:30.650Z,65
2019-04-01T09:28:04.704Z,66
2019-04-01T09:33:38.747Z,66
2019-04-01T09:39:12.558Z,65
2019-04-01T09:44:46.583Z,64
2019-04-01T09:50:20.785Z,65
2019-04-01T09:55:54.882Z,64
2019-04-01T10:01:29.101Z,65
2019-04-01T10:07:03.300Z,65
2019-04-01T10:12:37.532Z,63
2019-04-01T10:18:11.754Z,64
2019-04-01T10:23:46.121Z,63
2019-04-01T10:29:20.364Z,62
2019-04-01T10:34:54.798Z,61
2019-04-01T10:40:29.036Z,61
2019-04-01T10:46:03.477Z,61
2019-04-01T10:51:37.841Z,59
2019-04-01T10:57:12.407Z,58
2019-04-01T11:02:49.800Z,58
2019-04-01T11:08:21.611Z,57
2019-04-01T11:13:55.949Z,55
2019-04-01T11:19:30.502Z,55
2019-04-01T11:25:05.336Z,55
2019-04-01T11:30:40.094Z,54
2019-04-01T11:36:14.447Z,55
2019-04-01T11:41:49.367Z,55
2019-04-01T11:47:24.242Z,54
2019-04-01T11:52:59.051Z,55
2019-04-01T11:58:33.937Z,54
2019-04-01T12:04:08.775Z,54
2019-04-01T12:09:43.785Z,54
2019-04-01T12:15:18.769Z,52
2019-04-01T12:20:53.910Z,51
2019-04-01T12:26:28.967Z,52
2019-04-01T12:32:04.020Z,53
2019-04-01T12:37:39.372Z,50
2019-04-01T12:43:15.355Z,50
2019-04-01T12:48:49.988Z,53
2019-04-01T12:54:25.264Z,52
2019-04-01T13:05:36.206Z,50
2019-04-01T13:11:11.536Z,49
2019-04-01T13:16:46.860Z,49
2019-04-01T13:22:22.037Z,49
2019-04-01T13:27:57.477Z,49
2019-04-01T13:33:32.273Z,47
2019-04-01T13:39:07.408Z,49
2019-04-01T13:44:42.660Z,50
2019-04-01T13:50:17.854Z,49
2019-04-01T13:55:53.022Z,50
2019-04-01T14:01:28.134Z,51
2019-04-01T14:07:03.366Z,49
2019-04-01T14:12:38.454Z,48
2019-04-01T14:18:13.406Z,48
2019-04-01T14:23:48.678Z,46
2019-04-01T14:29:23.991Z,48
2019-04-01T14:34:59.443Z,48
2019-04-01T14:40:34.960Z,49
2019-04-01T14:46:10.478Z,48
2019-04-01T14:51:46.068Z,47
2019-04-01T14:57:21.730Z,49
2019-04-01T15:02:57.383Z,47
2019-04-01T15:08:33.053Z,49
2019-04-01T15:14:08.937Z,46
2019-04-01T15:19:44.071Z,48
2019-04-01T15:25:19.424Z,47
2019-04-01T15:30:54.677Z,50
2019-04-01T15:36:29.918Z,50
2019-04-01T15:42:05.010Z,49
2019-04-01T15:47:39.746Z,49
2019-04-01T15:53:14.180Z,45
2019-04-01T15:58:50.725Z,49
2019-04-01T16:04:27.340Z,49
2019-04-01T16:10:01.603Z,49
2019-04-01T16:15:35.650Z,48
2019-04-01T16:21:09.766Z,47
2019-04-01T16:26:43.893Z,53
2019-04-01T16:32:17.870Z,52
2019-04-01T16:37:51.797Z,51
2019-04-01T16:43:25.621Z,48
2019-04-01T16:48:59.467Z,48
2019-04-01T16:54:33.252Z,48
2019-04-01T17:00:07.094Z,50
2019-04-01T17:05:40.805Z,49
2019-04-01T17:11:14.544Z,50
2019-04-01T17:16:48.194Z,49
2019-04-01T17:22:21.831Z,49
2019-04-01T17:27:55.053Z,49
2019-04-01T17:33:28.294Z,48
2019-04-01T17:39:01.319Z,48
2019-04-01T17:44:34.452Z,48
2019-04-01T17:50:07.696Z,49
2019-04-01T17:55:40.914Z,49
2019-04-01T18:01:13.976Z,49
2019-04-01T18:06:47.341Z,50
2019-04-01T18:12:20.617Z,50
2019-04-01T18:17:53.938Z,51
2019-04-01T18:23:27.004Z,54
2019-04-01T18:28:59.319Z,56
2019-04-01T18:34:31.717Z,57
2019-04-01T18:40:03.970Z,57
2019-04-01T18:45:36.096Z,56
2019-04-01T18:51:08.217Z,57
2019-04-01T18:56:40.430Z,57
2019-04-01T19:02:13.237Z,56
2019-04-01T19:07:44.593Z,55
2019-04-01T19:13:16.612Z,56
2019-04-01T19:18:48.707Z,55
2019-04-01T19:24:21.202Z,56
2019-04-01T19:29:54.203Z,55
2019-04-01T19:35:27.100Z,56
2019-04-01T19:40:59.867Z,56
2019-04-01T19:46:32.057Z,57
2019-04-01T19:52:04.756Z,56
2019-04-01T19:57:37.706Z,57
2019-04-01T20:03:10.436Z,58
2019-04-01T20:08:43.263Z,57
2019-04-01T20:14:15.819Z,57
2019-04-01T20:19:47.912Z,61
2019-04-01T20:25:19.954Z,62
2019-04-01T20:30:51.952Z,61
2019-04-01T20:36:28.631Z,59
2019-04-01T20:41:55.992Z,61
2019-04-01T20:47:28.040Z,62
2019-04-01T20:53:00.034Z,60
2019-04-01T20:58:32.792Z,60
2019-04-01T21:04:05.685Z,61
2019-04-01T21:09:38.443Z,61
2019-04-01T21:15:11.243Z,62
2019-04-01T21:20:44.066Z,62
2019-04-01T21:26:16.859Z,62
2019-04-01T21:31:49.541Z,62
2019-04-01T21:37:22.251Z,62
2019-04-01T21:42:55.092Z,62
2019-04-01T21:48:27.820Z,62
2019-04-01T21:54:00.720Z,63
2019-04-01T21:59:33.536Z,62
2019-04-01T22:05:06.212Z,63
2019-04-01T22:10:38.907Z,66
2019-04-01T22:16:11.123Z,67
2019-04-01T22:21:43.715Z,65
2019-04-01T22:27:16.559Z,65
2019-04-01T22:32:49.314Z,65
2019-04-01T22:38:25.164Z,65
2019-04-01T22:43:59.366Z,67
2019-04-01T22:49:32.143Z,68
2019-04-01T22:55:04.860Z,71
2019-04-01T23:00:37.601Z,79
2019-04-01T23:06:10.026Z,74
2019-04-01T23:11:41.692Z,76
2019-04-01T23:17:13.229Z,75
2019-04-01T23:22:44.926Z,76
2019-04-01T23:28:16.420Z,75
2019-04-01T23:33:47.952Z,75
2019-04-01T23:39:19.722Z,75
2019-04-01T23:44:51.262Z,75
2019-04-01T23:50:22.581Z,75
2019-04-01T23:55:54.101Z,75
